KLGU/LGU METAR and TAF weather

Enter ICAO airport designator
Station Type Date Time Source
KLGU METAR 2020/02/19 14:51 UTC NOAA

KLGU 191451Z AUTO 00000KT 10SM CLR M12/M16 A3033 RMK AO2 SLP319 I3000 T11171161 53014


Station Type Date Time Source
KLGU Decoded METAR 2020/02/19 14:51 UTC NOAA

LOGAN CACHE AIRPORT, UT, United States (KLGU) 41-47N 111-51W 1355M
Feb 19, 2020 - 09:51 AM EST / 2020.02.19 1451 UTC
Wind: Calm:0
Visibility: 10 mile(s):0
Sky conditions: clear
Temperature: 10.9 F (-11.7 C)
Dew Point: 3.0 F (-16.1 C)
Relative Humidity: 69%
Pressure (altimeter): 30.33 in. Hg (1027 hPa)
Pressure tendency: 0.04 inches (1.4 hPa) higher than three hours ago
ob: KLGU 191451Z AUTO 00000KT 10SM CLR M12/M16 A3033 RMK AO2 SLP319 I3000 T11171161 53014
cycle: 15

Station Type Date Time Source
KLGU TAF 2020/02/19 12:30 UTC NOAA

TAF KLGU 191129Z 1912/2012 VRB04KT P6SM BCFG SCT007 SCT200
FM191600 34003KT P6SM FEW250
FM200200 VRB03KT P6SM SKC

Example: see airport list